Weather at Quambatook Airport

Public forecast

Using degrees Celsius for public forecast. Weather courtesy of forecast.io.

Closest aviation weather report (METAR) to Quambatook Airport

Report is more than 6 hours old.

Closest report is Mildura Airport, 120.3 nm (222.8 km) NW. Retrieved 2022/05/17 10:30 UTC (4 days ago):

YMIA 171030Z AUTO 00000KT 7000 // NCD 11/08 Q1022

Closest aviation forecast (TAF) to Quambatook Airport

Closest forecast is Melbourne International Airport, 126.4 nm (234.1 km) SSE. Retrieved 2022-05-21 03:49 UTC (4 hours ago):

TAF YMML 210225Z 2103/2206 16008KT CAVOK FM210900 25005KT CAVOK FM211400 34005KT 9999 SCT010 FM211800 27005KT 9999 BKN010 FM212300 01005KT CAVOK